YRV weather

Revelstoke Airport
Revelstoke, British Columbia, Canada

Public forecast

Using degrees Celsius for public forecast. Weather courtesy of forecast.io.

METAR (pilot weather report)

Retrieved 2019/05/19 23:00 UTC (51 minutes ago):

CYRV 192300Z AUTO 00000KT 9SM OVC085 19/02 A2978 RMK SLP088 DENSITY ALT 2400FT

TAF (pilot weather forecast)

Closest forecast is Kelowna International Airport, 75.9 nm (140.6 km) SW. Retrieved 2019/05/19 19:42 UTC (4 hours ago):

TAF TAF CYLW 191838Z 1919/2007 36015G25KT P6SM SCT070 TEMPO 1919/1922 BKN070 FM192200 34012G22KT P6SM BKN080 TEMPO 1922/2005 P6SM -SHRA BECMG 2001/2003 01008KT FM200500 VRB03KT P6SM SCT060 SCT100 RMK FCST BASED ON AUTO OBS. NXT FCST BY 200100Z